Terminal Aerodrome Forecast
Issued by NWS

Home | Current Version | Previous Version | Text Only | Print | Product List | Glossary On
Versions: 1 2 3 4 5 6 7 8 9 10 11 12 13 14
000
FTUS41 KBTV 310520
TAFPBG
TAF
KPBG 310520Z 3106/0106 22005KT P6SM SKC
     FM311400 26008G15KT P6SM SKC
     FM311800 31012G20KT P6SM SCT060
     FM010000 33006KT P6SM SCT060=

USA.gov is the U.S. government's official web portal to all federal, state and local government web resources and services.